Time;durP1;ratioP1;P1;durP2;ratioP2;P2;SDS_P1;SDS_P2;PMS_P1;PMS_P2;Temp;Humidity;BMP_temperature;BMP_pressure;BME280_temperature;BME280_humidity;BME280_pressure;Samples;Min_cycle;Max_cycle;Signal;HPM_P1;HPM_P2
2023/12/20 00:00:43;;;;;;;12.00;5.93;;;23.80;41.30;;;;;;6159912;28;81218;-59
2023/12/20 00:03:43;;;;;;;9.93;6.15;;;23.90;41.30;;;;;;6158744;28;82169;-58
2023/12/20 00:06:44;;;;;;;11.90;5.78;;;23.90;41.40;;;;;;6161838;28;87834;-59
2023/12/20 00:09:44;;;;;;;10.13;5.35;;;23.90;41.60;;;;;;6160187;28;81087;-60
2023/12/20 00:12:45;;;;;;;8.73;5.28;;;23.80;41.40;;;;;;6167028;28;86979;-59
2023/12/20 00:15:45;;;;;;;9.75;5.40;;;23.90;41.80;;;;;;6149739;28;81094;-58
2023/12/20 00:18:46;;;;;;;8.30;5.40;;;23.90;42.10;;;;;;6152983;28;82942;-58
2023/12/20 00:21:46;;;;;;;10.20;5.70;;;23.90;41.50;;;;;;6153170;28;81056;-58
2023/12/20 00:24:47;;;;;;;9.75;5.65;;;23.90;41.50;;;;;;6162574;28;81476;-58
2023/12/20 00:27:48;;;;;;;11.85;6.07;;;23.90;41.50;;;;;;6150999;28;82022;-60
2023/12/20 00:30:48;;;;;;;11.02;5.75;;;23.90;41.40;;;;;;6153541;28;80939;-59
2023/12/20 00:33:49;;;;;;;11.15;5.88;;;23.90;41.30;;;;;;6152616;28;80853;-59
2023/12/20 00:36:49;;;;;;;11.23;5.75;;;23.90;41.40;;;;;;6153294;28;83457;-59
2023/12/20 00:39:50;;;;;;;10.63;5.85;;;23.90;41.50;;;;;;6152985;28;80733;-59
2023/12/20 00:42:50;;;;;;;10.77;6.00;;;23.90;41.50;;;;;;6149535;28;81114;-59
2023/12/20 00:45:51;;;;;;;9.82;5.55;;;23.90;41.40;;;;;;6152288;28;84116;-59
2023/12/20 00:48:51;;;;;;;12.68;6.30;;;23.80;41.30;;;;;;6139729;28;81536;-60
2023/12/20 00:51:52;;;;;;;10.93;6.28;;;23.80;41.30;;;;;;6153988;28;81120;-59
2023/12/20 00:54:53;;;;;;;8.15;4.97;;;23.80;41.20;;;;;;6157367;28;82637;-59
2023/12/20 00:57:53;;;;;;;12.43;6.63;;;23.80;41.20;;;;;;6151335;28;80731;-59
2023/12/20 01:00:54;;;;;;;12.95;6.72;;;23.80;41.20;;;;;;6158840;28;81206;-71
2023/12/20 01:03:55;;;;;;;11.65;6.00;;;23.80;41.10;;;;;;6158541;28;80713;-72
2023/12/20 01:06:55;;;;;;;11.25;5.97;;;23.80;41.10;;;;;;6161266;28;81022;-74
2023/12/20 01:09:56;;;;;;;11.02;6.55;;;23.80;41.20;;;;;;6161913;28;80553;-70
2023/12/20 01:12:56;;;;;;;11.63;6.47;;;23.80;41.30;;;;;;6168833;28;81776;-70
2023/12/20 01:15:57;;;;;;;12.77;7.57;;;23.80;41.20;;;;;;6171242;28;80448;-68
2023/12/20 01:18:58;;;;;;;12.63;6.15;;;23.80;41.20;;;;;;6166623;28;81634;-67
2023/12/20 01:21:59;;;;;;;10.77;6.53;;;23.80;41.10;;;;;;6166366;28;80447;-68
2023/12/20 01:24:59;;;;;;;12.05;6.68;;;23.80;41.10;;;;;;6170327;28;80442;-63
2023/12/20 01:28:00;;;;;;;12.52;6.40;;;23.80;41.20;;;;;;6165850;28;80481;-65
2023/12/20 01:31:00;;;;;;;11.63;6.28;;;23.80;41.50;;;;;;6167614;28;80505;-64
2023/12/20 01:34:01;;;;;;;11.10;6.35;;;23.80;42.60;;;;;;6171688;28;80444;-66
2023/12/20 01:37:02;;;;;;;10.82;6.35;;;23.80;42.10;;;;;;6173194;28;80242;-59
2023/12/20 01:40:02;;;;;;;12.00;6.32;;;23.80;41.80;;;;;;6169733;28;80178;-66
2023/12/20 01:43:03;;;;;;;11.35;5.95;;;23.80;41.70;;;;;;6167079;28;80418;-66
2023/12/20 01:46:03;;;;;;;11.75;6.13;;;23.80;41.60;;;;;;6163774;28;80858;-67
2023/12/20 01:49:04;;;;;;;10.20;6.43;;;23.80;41.60;;;;;;6161229;28;80628;-67
2023/12/20 01:52:04;;;;;;;14.40;7.07;;;23.80;41.50;;;;;;6148990;28;80236;-65
2023/12/20 01:55:11;;;;;;;11.95;6.50;;;23.80;41.50;;;;;;6159998;28;81246;-65
2023/12/20 01:58:11;;;;;;;11.75;6.50;;;23.80;41.60;;;;;;6167828;28;80629;-59
2023/12/20 02:01:13;;;;;;;13.50;6.82;;;23.80;41.60;;;;;;6175230;28;80663;-60
2023/12/20 02:04:13;;;;;;;14.70;6.63;;;23.80;41.50;;;;;;6174111;28;80415;-60
2023/12/20 02:07:14;;;;;;;11.55;6.28;;;23.80;41.40;;;;;;6174658;28;80458;-59
2023/12/20 02:10:14;;;;;;;10.90;6.45;;;23.80;41.40;;;;;;6164509;28;82447;-60
2023/12/20 02:13:15;;;;;;;14.55;5.80;;;23.80;41.30;;;;;;6173107;28;82310;-60
2023/12/20 02:16:15;;;;;;;9.38;5.13;;;23.80;41.30;;;;;;6174260;28;81807;-59
2023/12/20 02:19:16;;;;;;;11.27;5.57;;;23.80;41.30;;;;;;6171791;28;80552;-59
2023/12/20 02:22:16;;;;;;;8.13;4.75;;;23.80;41.30;;;;;;6172996;28;80589;-59
2023/12/20 02:25:17;;;;;;;12.07;5.50;;;23.70;41.20;;;;;;6173067;28;80331;-60
2023/12/20 02:28:17;;;;;;;9.00;6.07;;;23.70;41.20;;;;;;6174303;28;80177;-59
2023/12/20 02:31:18;;;;;;;11.32;4.25;;;23.70;41.20;;;;;;6171256;28;81950;-59
2023/12/20 02:34:18;;;;;;;7.15;4.28;;;23.70;41.10;;;;;;6173831;28;80639;-59
2023/12/20 02:37:19;;;;;;;8.30;4.90;;;23.70;41.10;;;;;;6174795;28;80571;-59
2023/12/20 02:40:19;;;;;;;9.10;5.13;;;23.70;41.00;;;;;;6173266;28;80859;-61
2023/12/20 02:43:20;;;;;;;7.35;4.50;;;23.70;41.00;;;;;;6177438;28;80555;-61
2023/12/20 02:46:20;;;;;;;7.22;4.45;;;23.70;40.90;;;;;;6176485;28;80757;-59
2023/12/20 02:49:21;;;;;;;8.68;4.70;;;23.70;40.90;;;;;;6177982;28;81594;-59
2023/12/20 02:52:21;;;;;;;6.13;3.63;;;23.70;40.80;;;;;;6178995;28;80925;-60
2023/12/20 02:55:22;;;;;;;7.05;4.45;;;23.70;40.80;;;;;;6176685;28;81227;-60
2023/12/20 02:58:22;;;;;;;7.82;4.45;;;23.70;40.80;;;;;;6176585;28;80596;-59
2023/12/20 03:01:23;;;;;;;7.25;4.32;;;23.70;40.70;;;;;;6176948;28;80814;-61
2023/12/20 03:04:23;;;;;;;5.35;3.45;;;23.70;40.70;;;;;;6165512;28;81178;-59
2023/12/20 03:07:24;;;;;;;7.25;3.78;;;23.70;40.70;;;;;;6160560;28;81096;-59
2023/12/20 03:10:24;;;;;;;6.82;3.92;;;23.70;40.80;;;;;;6176073;28;80686;-59
2023/12/20 03:13:25;;;;;;;5.75;3.55;;;23.70;41.50;;;;;;6158551;28;80404;-59
2023/12/20 03:16:25;;;;;;;5.20;3.45;;;23.70;40.80;;;;;;6155196;28;83364;-59
2023/12/20 03:19:26;;;;;;;7.18;3.53;;;23.70;40.80;;;;;;6154661;28;80585;-61
2023/12/20 03:22:26;;;;;;;4.40;2.70;;;23.70;40.70;;;;;;6154509;28;80535;-59
2023/12/20 03:25:27;;;;;;;5.35;3.70;;;23.70;40.70;;;;;;6154614;28;80816;-60
2023/12/20 03:28:27;;;;;;;6.28;3.50;;;23.60;40.70;;;;;;6157173;28;81334;-60
2023/12/20 03:31:28;;;;;;;4.05;2.60;;;23.70;40.70;;;;;;6153743;28;81957;-60
2023/12/20 03:34:29;;;;;;;4.53;2.90;;;23.70;40.60;;;;;;6154221;28;80942;-59
2023/12/20 03:37:29;;;;;;;4.35;3.05;;;23.70;40.50;;;;;;6164518;28;80943;-59
2023/12/20 03:40:30;;;;;;;4.82;2.97;;;23.70;40.40;;;;;;6178740;28;81467;-59
2023/12/20 03:43:31;;;;;;;4.68;3.00;;;23.70;40.50;;;;;;6173142;28;81231;-59
2023/12/20 03:46:31;;;;;;;3.33;2.67;;;23.70;40.40;;;;;;6171392;28;80901;-58
2023/12/20 03:49:32;;;;;;;4.97;3.10;;;23.60;40.50;;;;;;6158248;28;85123;-61
2023/12/20 03:52:32;;;;;;;4.70;3.20;;;23.70;40.60;;;;;;6151350;28;80972;-61
2023/12/20 03:55:33;;;;;;;3.63;2.30;;;23.60;40.60;;;;;;6162743;28;80913;-61
2023/12/20 03:58:33;;;;;;;3.67;2.17;;;23.70;40.80;;;;;;6174001;28;81068;-60
2023/12/20 04:01:34;;;;;;;4.65;2.83;;;23.60;40.70;;;;;;6165855;28;80879;-60
2023/12/20 04:04:34;;;;;;;4.28;2.80;;;23.70;40.80;;;;;;6176024;28;80881;-60
2023/12/20 04:07:34;;;;;;;3.60;2.83;;;23.70;40.80;;;;;;6177214;28;82216;-60
2023/12/20 04:10:35;;;;;;;4.07;2.33;;;23.70;40.80;;;;;;6161916;28;80742;-58
2023/12/20 04:13:35;;;;;;;2.78;2.10;;;23.70;40.70;;;;;;6177128;28;80410;-61
2023/12/20 04:16:36;;;;;;;3.10;2.40;;;23.70;40.80;;;;;;6176688;28;80669;-59
2023/12/20 04:19:37;;;;;;;3.42;2.20;;;23.70;40.80;;;;;;6171229;28;81034;-59
2023/12/20 04:22:37;;;;;;;4.03;2.80;;;23.70;40.80;;;;;;6169381;28;80251;-59
2023/12/20 04:25:38;;;;;;;4.40;2.47;;;23.70;40.90;;;;;;6175318;28;80855;-59
2023/12/20 04:28:38;;;;;;;2.95;2.38;;;23.80;40.90;;;;;;6175586;28;81245;-59
2023/12/20 04:31:39;;;;;;;3.58;2.60;;;23.80;40.60;;;;;;6165496;28;80535;-59
2023/12/20 04:34:39;;;;;;;5.32;2.72;;;23.80;40.90;;;;;;6173455;28;83333;-61
2023/12/20 04:37:40;;;;;;;2.95;2.40;;;23.80;41.00;;;;;;6176368;28;80914;-59
2023/12/20 04:40:41;;;;;;;3.95;2.42;;;23.80;41.40;;;;;;6178013;28;80574;-58
2023/12/20 04:43:41;;;;;;;4.05;2.78;;;23.90;41.20;;;;;;6175705;28;80740;-59
2023/12/20 04:46:42;;;;;;;4.68;2.90;;;23.90;41.20;;;;;;6174476;28;80543;-59
2023/12/20 04:49:42;;;;;;;3.75;2.58;;;23.90;41.10;;;;;;6175857;28;80830;-60
2023/12/20 04:52:42;;;;;;;6.25;2.50;;;23.90;41.10;;;;;;6173976;28;80670;-58
2023/12/20 04:55:43;;;;;;;3.83;2.53;;;23.80;40.90;;;;;;6174577;28;81374;-58
2023/12/20 04:58:44;;;;;;;3.65;2.72;;;23.90;41.00;;;;;;6174973;28;81101;-60
2023/12/20 05:01:44;;;;;;;4.18;3.05;;;23.90;40.60;;;;;;6175110;28;81039;-60
2023/12/20 05:04:45;;;;;;;4.00;2.60;;;23.90;40.60;;;;;;6174303;28;80457;-59
2023/12/20 05:07:45;;;;;;;3.47;2.30;;;23.90;40.70;;;;;;6174409;28;80108;-58
2023/12/20 05:10:46;;;;;;;4.93;2.38;;;23.90;40.60;;;;;;6162747;28;80891;-57
2023/12/20 05:13:46;;;;;;;3.78;2.33;;;23.90;40.60;;;;;;6164221;28;83400;-59
2023/12/20 05:16:47;;;;;;;2.22;1.95;;;24.00;41.00;;;;;;6163395;28;80793;-58
2023/12/20 05:19:47;;;;;;;3.05;2.30;;;23.90;40.70;;;;;;6174362;28;80183;-58
2023/12/20 05:22:48;;;;;;;3.22;2.30;;;24.00;41.40;;;;;;6164854;28;82658;-59
2023/12/20 05:25:48;;;;;;;2.17;1.88;;;24.00;41.20;;;;;;6163807;28;82121;-59
2023/12/20 05:28:49;;;;;;;3.63;2.53;;;24.00;41.40;;;;;;6169492;28;81020;-59
2023/12/20 05:31:49;;;;;;;2.63;2.17;;;24.00;41.30;;;;;;6156896;28;81157;-58
2023/12/20 05:34:50;;;;;;;3.95;2.50;;;24.00;41.50;;;;;;6172410;28;80500;-58
2023/12/20 05:37:50;;;;;;;3.35;2.30;;;24.00;41.60;;;;;;6159355;28;81856;-60
2023/12/20 05:40:51;;;;;;;4.18;2.70;;;24.10;41.50;;;;;;6164479;28;80723;-58
2023/12/20 05:43:51;;;;;;;4.15;2.50;;;24.10;41.20;;;;;;6174861;28;81482;-58
2023/12/20 05:46:52;;;;;;;3.22;2.35;;;24.00;41.30;;;;;;6171439;28;81042;-59
2023/12/20 05:49:52;;;;;;;2.83;2.10;;;24.10;41.50;;;;;;6164836;28;80994;-60
2023/12/20 05:52:53;;;;;;;5.15;2.35;;;24.10;41.70;;;;;;6171778;28;80839;-57
2023/12/20 05:55:54;;;;;;;2.78;2.15;;;24.00;41.90;;;;;;6172783;28;80887;-67
2023/12/20 05:58:54;;;;;;;4.65;2.03;;;24.00;42.10;;;;;;6168818;28;80460;-68
2023/12/20 06:01:55;;;;;;;4.68;2.10;;;24.00;42.40;;;;;;6173415;28;80934;-68
2023/12/20 06:04:55;;;;;;;2.78;1.95;;;24.10;42.70;;;;;;6163198;28;81747;-66
2023/12/20 06:08:01;;;;;;;5.45;2.42;;;24.00;43.70;;;;;;6148687;28;80840;-64
2023/12/20 06:11:01;;;;;;;4.32;2.58;;;24.10;43.80;;;;;;6171840;28;81810;-64
2023/12/20 06:14:02;;;;;;;3.10;2.10;;;24.10;44.00;;;;;;6171878;28;80542;-66
2023/12/20 06:17:02;;;;;;;3.30;2.30;;;24.10;44.00;;;;;;6168664;28;80712;-66
2023/12/20 06:20:07;;;;;;;4.85;2.28;;;24.10;44.50;;;;;;6178160;28;81782;-69
2023/12/20 06:23:07;;;;;;;6.60;2.33;;;24.10;44.50;;;;;;6169300;28;80817;-67
2023/12/20 06:26:08;;;;;;;2.78;2.00;;;24.10;44.80;;;;;;6164320;28;81614;-68
2023/12/20 06:29:08;;;;;;;4.07;1.83;;;24.10;45.50;;;;;;6167744;28;84725;-67
2023/12/20 06:32:09;;;;;;;6.25;2.20;;;24.10;45.10;;;;;;6165473;28;81448;-66
2023/12/20 06:35:10;;;;;;;5.20;2.20;;;24.20;45.70;;;;;;6170112;28;80284;-67
2023/12/20 06:38:10;;;;;;;3.88;1.70;;;24.20;45.70;;;;;;6163611;28;85589;-66
2023/12/20 06:41:11;;;;;;;5.82;2.08;;;24.20;46.20;;;;;;6171065;28;82452;-65
2023/12/20 06:44:12;;;;;;;2.30;1.60;;;24.20;45.90;;;;;;6174595;28;81220;-63
2023/12/20 06:47:14;;;;;;;1.98;1.67;;;24.30;46.00;;;;;;6176097;28;80463;-64
2023/12/20 06:50:14;;;;;;;2.90;1.65;;;24.30;45.90;;;;;;6171504;28;80674;-58
2023/12/20 06:53:14;;;;;;;6.57;1.80;;;24.30;45.80;;;;;;6169967;28;80952;-57
2023/12/20 06:56:16;;;;;;;3.03;1.88;;;24.20;46.40;;;;;;6170247;28;81271;-56
2023/12/20 06:59:16;;;;;;;4.25;2.30;;;24.20;46.00;;;;;;6168538;28;80802;-56
2023/12/20 07:02:17;;;;;;;7.25;1.75;;;24.20;46.40;;;;;;6173537;28;80954;-51
2023/12/20 07:05:19;;;;;;;3.70;1.50;;;24.20;46.20;;;;;;6168372;28;81211;-55
2023/12/20 07:08:20;;;;;;;8.85;1.95;;;24.10;46.80;;;;;;6170261;28;81032;-69
2023/12/20 07:11:21;;;;;;;3.20;1.77;;;24.10;46.80;;;;;;6174016;28;80880;-68
2023/12/20 07:14:21;;;;;;;6.90;1.90;;;24.10;47.20;;;;;;6169445;28;81384;-72
2023/12/20 07:17:22;;;;;;;6.65;2.28;;;24.20;47.60;;;;;;6177050;28;80709;-67
2023/12/20 07:20:23;;;;;;;7.45;1.80;;;24.20;47.30;;;;;;6174333;28;82369;-67
2023/12/20 07:23:25;;;;;;;5.68;2.10;;;24.10;48.00;;;;;;6174626;28;81250;-72
2023/12/20 07:26:26;;;;;;;3.45;1.92;;;24.10;47.80;;;;;;6160861;28;80605;-55
2023/12/20 07:29:26;;;;;;;10.00;1.83;;;24.10;49.60;;;;;;6166877;28;82196;-59
2023/12/20 07:32:27;;;;;;;5.30;1.88;;;24.10;49.10;;;;;;6162470;28;82906;-58
2023/12/20 07:35:27;;;;;;;6.82;3.47;;;24.10;48.50;;;;;;6170989;28;80673;-57
2023/12/20 07:38:28;;;;;;;37.85;18.50;;;24.10;49.10;;;;;;6175940;28;83588;-55
2023/12/20 07:41:28;;;;;;;132.57;64.13;;;24.10;48.70;;;;;;6173044;28;83706;-53
2023/12/20 07:44:29;;;;;;;174.48;93.55;;;24.10;48.60;;;;;;6170706;28;87820;-55
2023/12/20 07:47:29;;;;;;;249.65;123.65;;;24.10;48.90;;;;;;6159413;28;86677;-58
2023/12/20 07:50:30;;;;;;;212.73;100.68;;;24.20;49.00;;;;;;6170683;28;88538;-55
2023/12/20 07:53:30;;;;;;;217.07;112.70;;;24.10;49.90;;;;;;6160500;28;87590;-53
2023/12/20 07:56:31;;;;;;;226.90;118.95;;;24.10;49.40;;;;;;6164682;28;85168;-53
2023/12/20 07:59:31;;;;;;;257.92;127.95;;;24.10;49.10;;;;;;6160987;28;85649;-54
2023/12/20 08:02:32;;;;;;;267.95;137.40;;;24.10;49.60;;;;;;6159305;28;86638;-55
2023/12/20 08:05:32;;;;;;;302.58;157.18;;;24.10;49.20;;;;;;6153630;28;86280;-69
2023/12/20 08:08:33;;;;;;;319.77;160.82;;;24.20;49.10;;;;;;6166913;28;86476;-67
2023/12/20 08:11:33;;;;;;;322.20;164.77;;;24.20;48.80;;;;;;6136258;28;87586;-78
2023/12/20 08:14:34;;;;;;;290.33;148.25;;;24.20;49.60;;;;;;6145529;28;88326;-74
2023/12/20 08:17:34;;;;;;;259.98;133.75;;;24.10;49.70;;;;;;6134079;28;86571;-75
2023/12/20 08:20:35;;;;;;;188.98;93.72;;;24.10;49.30;;;;;;6151695;28;88446;-77
2023/12/20 08:23:35;;;;;;;156.38;80.15;;;24.20;49.80;;;;;;6152380;28;85634;-70
2023/12/20 08:26:36;;;;;;;176.75;89.18;;;24.10;50.20;;;;;;6153057;28;88320;-66
2023/12/20 08:29:36;;;;;;;172.98;90.35;;;24.10;49.70;;;;;;6153147;28;84142;-72
2023/12/20 08:32:37;;;;;;;156.90;78.35;;;24.10;49.30;;;;;;6148381;28;84040;-65
2023/12/20 08:35:37;;;;;;;147.35;74.95;;;24.10;49.40;;;;;;6156703;28;85877;-68
2023/12/20 08:38:38;;;;;;;119.18;60.95;;;24.10;49.00;;;;;;6140253;28;83676;-69
2023/12/20 08:41:38;;;;;;;108.60;53.55;;;24.10;48.90;;;;;;6150310;28;83731;-69
2023/12/20 08:44:39;;;;;;;108.30;56.60;;;24.10;49.60;;;;;;6143261;28;84403;-71
2023/12/20 08:47:41;;;;;;;97.13;47.63;;;24.10;49.00;;;;;;6145771;28;83608;-72
2023/12/20 08:50:41;;;;;;;83.55;44.03;;;24.10;48.90;;;;;;6143558;28;83180;-71
2023/12/20 08:53:44;;;;;;;77.50;36.55;;;24.10;49.20;;;;;;6150539;28;84157;-69
2023/12/20 08:56:46;;;;;;;65.00;35.38;;;24.10;49.70;;;;;;6152235;28;83255;-72
2023/12/20 08:59:46;;;;;;;66.78;32.40;;;24.10;48.50;;;;;;6164264;28;85275;-51
2023/12/20 09:02:47;;;;;;;66.05;32.00;;;24.10;48.70;;;;;;6164216;28;83423;-54
2023/12/20 09:05:47;;;;;;;52.25;27.85;;;24.10;48.90;;;;;;6167952;28;85499;-58
2023/12/20 09:08:48;;;;;;;52.42;27.95;;;24.10;49.20;;;;;;6154740;28;83187;-58
2023/12/20 09:11:51;;;;;;;78.22;23.60;;;24.10;49.00;;;;;;6171118;28;83652;-57
2023/12/20 09:14:51;;;;;;;48.83;22.20;;;24.10;49.30;;;;;;6168287;28;83272;-57
2023/12/20 09:17:52;;;;;;;36.13;20.02;;;24.10;49.40;;;;;;6169434;28;83886;-57
2023/12/20 09:20:52;;;;;;;36.05;18.70;;;24.10;49.60;;;;;;6166779;28;84817;-57
2023/12/20 09:23:53;;;;;;;29.63;14.25;;;24.10;49.20;;;;;;6171613;28;83398;-55
2023/12/20 09:26:53;;;;;;;29.90;16.00;;;24.10;49.30;;;;;;6166196;28;83604;-56
2023/12/20 09:29:54;;;;;;;25.85;14.52;;;24.00;49.30;;;;;;6167968;28;83723;-55
2023/12/20 09:32:54;;;;;;;25.65;14.27;;;24.10;49.10;;;;;;6116908;28;85069;-56
2023/12/20 09:35:55;;;;;;;20.55;11.82;;;24.10;49.00;;;;;;6146984;28;85547;-70
2023/12/20 09:38:55;;;;;;;22.60;12.20;;;24.10;49.20;;;;;;6147890;28;84593;-66
2023/12/20 09:41:56;;;;;;;19.52;10.38;;;24.10;48.40;;;;;;6136440;28;83630;-65
2023/12/20 09:44:56;;;;;;;19.75;10.25;;;24.10;48.70;;;;;;6146864;28;83198;-64
2023/12/20 09:47:57;;;;;;;22.80;10.32;;;24.10;48.30;;;;;;6155006;28;84268;-70
2023/12/20 09:50:57;;;;;;;16.48;9.20;;;24.10;48.40;;;;;;6139534;28;85494;-66
2023/12/20 09:53:58;;;;;;;17.02;9.10;;;24.10;48.40;;;;;;6157865;28;83003;-62
2023/12/20 09:56:58;;;;;;;18.30;8.45;;;24.10;48.40;;;;;;6152044;28;80707;-64
2023/12/20 09:59:59;;;;;;;16.63;8.48;;;24.10;48.70;;;;;;6170085;28;80724;-64
2023/12/20 10:02:59;;;;;;;11.75;7.43;;;24.10;48.30;;;;;;6171471;28;81739;-72
2023/12/20 10:06:00;;;;;;;15.00;7.75;;;24.10;48.30;;;;;;6156053;28;80863;-67
2023/12/20 10:09:01;;;;;;;11.88;7.15;;;24.00;48.30;;;;;;6163598;28;82930;-66
2023/12/20 10:12:01;;;;;;;13.00;6.88;;;24.00;49.00;;;;;;6173886;28;81512;-67
2023/12/20 10:15:02;;;;;;;10.68;5.88;;;24.00;48.40;;;;;;6173289;28;80607;-68
2023/12/20 10:18:02;;;;;;;10.55;6.28;;;24.00;48.20;;;;;;6174213;28;81306;-69
2023/12/20 10:21:03;;;;;;;9.65;5.70;;;24.00;47.90;;;;;;6174070;28;81668;-69
2023/12/20 10:24:03;;;;;;;10.15;5.80;;;24.00;47.50;;;;;;6174471;28;80557;-71
2023/12/20 10:27:04;;;;;;;7.85;5.07;;;24.00;47.30;;;;;;6173359;28;80771;-66
2023/12/20 10:30:04;;;;;;;11.55;5.10;;;24.00;47.10;;;;;;6170051;28;81379;-58
2023/12/20 10:33:05;;;;;;;7.60;4.90;;;24.00;47.30;;;;;;6171705;28;80232;-55
2023/12/20 10:36:05;;;;;;;8.68;4.65;;;23.90;47.50;;;;;;6171008;28;80816;-59
2023/12/20 10:39:06;;;;;;;7.38;4.30;;;23.90;47.50;;;;;;6171701;28;80476;-55
2023/12/20 10:42:07;;;;;;;6.38;3.80;;;23.90;47.40;;;;;;6166520;28;80947;-56
2023/12/20 10:45:07;;;;;;;6.43;4.13;;;23.80;47.80;;;;;;6165775;28;80666;-57
2023/12/20 10:48:08;;;;;;;5.07;3.60;;;23.90;48.00;;;;;;6172378;28;80649;-65
2023/12/20 10:51:08;;;;;;;6.10;3.75;;;23.80;47.90;;;;;;6169468;28;84059;-66
2023/12/20 10:54:09;;;;;;;8.15;3.63;;;23.90;47.70;;;;;;6170125;28;83588;-67
2023/12/20 10:57:09;;;;;;;5.30;3.28;;;23.90;47.90;;;;;;6173933;28;81734;-66
2023/12/20 11:00:11;;;;;;;11.50;3.70;;;23.90;47.90;;;;;;6174520;28;81723;-68
2023/12/20 11:03:12;;;;;;;7.65;2.80;;;23.90;47.90;;;;;;6172871;28;80647;-63
2023/12/20 11:06:12;;;;;;;4.43;2.90;;;23.90;48.70;;;;;;6165272;28;81697;-65
2023/12/20 11:09:13;;;;;;;10.57;3.25;;;23.90;48.90;;;;;;6174338;28;85752;-72
2023/12/20 11:12:13;;;;;;;8.50;3.25;;;23.90;48.60;;;;;;6168114;28;80586;-71
2023/12/20 11:15:15;;;;;;;3.92;2.63;;;23.80;49.10;;;;;;6176777;28;83574;-72
2023/12/20 11:18:15;;;;;;;4.07;2.75;;;23.90;49.00;;;;;;6177463;28;80026;-72
2023/12/20 11:21:16;;;;;;;5.70;3.53;;;23.80;48.80;;;;;;6178675;28;81619;-74
2023/12/20 11:24:17;;;;;;;9.40;3.03;;;23.80;48.60;;;;;;6176747;28;80401;-72
2023/12/20 11:27:17;;;;;;;5.85;3.15;;;23.80;48.70;;;;;;6177796;28;81185;-73
2023/12/20 11:30:18;;;;;;;5.47;3.15;;;23.80;49.00;;;;;;6173275;28;81342;-76
2023/12/20 11:33:18;;;;;;;5.72;2.90;;;23.80;49.30;;;;;;6177275;28;80680;-65
2023/12/20 11:36:20;;;;;;;12.23;4.82;;;23.80;49.30;;;;;;6176238;28;81044;-74
2023/12/20 11:39:21;;;;;;;13.85;4.03;;;23.70;50.90;;;;;;6176576;28;81666;-73
2023/12/20 11:42:21;;;;;;;14.77;4.82;;;23.80;50.40;;;;;;6178832;28;80902;-70
2023/12/20 11:45:22;;;;;;;21.20;5.70;;;23.80;51.50;;;;;;6154170;28;81951;-73
2023/12/20 11:48:22;;;;;;;24.38;6.22;;;23.80;52.80;;;;;;6158455;28;80151;-69
2023/12/20 11:51:23;;;;;;;16.33;6.53;;;23.80;51.60;;;;;;6168263;28;81118;-68
2023/12/20 11:54:23;;;;;;;24.70;6.60;;;23.90;53.10;;;;;;6174964;28;80627;-71
2023/12/20 11:57:24;;;;;;;32.40;7.90;;;23.80;52.90;;;;;;6160821;28;82129;-71
2023/12/20 12:00:24;;;;;;;32.53;13.65;;;23.90;52.70;;;;;;6157328;28;81946;-73
2023/12/20 12:03:25;;;;;;;47.17;17.23;;;24.00;52.30;;;;;;6171455;28;83365;-61
2023/12/20 12:06:25;;;;;;;57.83;20.23;;;24.00;52.70;;;;;;6153926;28;83382;-60
2023/12/20 12:09:26;;;;;;;47.70;20.30;;;24.00;53.40;;;;;;6162835;28;83421;-60
2023/12/20 12:12:27;;;;;;;47.22;18.80;;;23.90;54.30;;;;;;6154029;28;84443;-59
2023/12/20 12:15:27;;;;;;;36.58;16.02;;;24.00;54.00;;;;;;6159367;28;83170;-58
2023/12/20 12:18:28;;;;;;;36.50;17.55;;;24.00;54.90;;;;;;6163606;28;84093;-59
2023/12/20 12:21:28;;;;;;;37.85;15.75;;;24.10;54.00;;;;;;6170209;28;83099;-70
2023/12/20 12:24:29;;;;;;;31.83;12.88;;;24.10;53.30;;;;;;6151439;28;86128;-71
2023/12/20 12:27:29;;;;;;;38.53;13.15;;;24.10;53.60;;;;;;6161167;28;85075;-67
2023/12/20 12:30:30;;;;;;;29.80;11.02;;;24.10;52.90;;;;;;6158298;28;85349;-69
2023/12/20 12:33:31;;;;;;;25.52;11.20;;;24.10;52.90;;;;;;6168042;28;83196;-70
2023/12/20 12:36:31;;;;;;;28.95;10.85;;;24.10;52.30;;;;;;6162079;28;83152;-70
2023/12/20 12:39:32;;;;;;;30.70;9.25;;;24.10;52.60;;;;;;6169375;28;84161;-62
2023/12/20 12:42:32;;;;;;;18.27;9.48;;;24.10;52.60;;;;;;6168128;28;82974;-63
2023/12/20 12:45:33;;;;;;;17.63;7.50;;;24.10;52.20;;;;;;6170557;28;81129;-65
2023/12/20 12:48:33;;;;;;;19.42;7.55;;;24.10;52.10;;;;;;6158803;28;80780;-63
2023/12/20 12:51:34;;;;;;;16.55;6.40;;;24.10;51.90;;;;;;6162282;28;81915;-62
2023/12/20 12:54:34;;;;;;;11.10;5.30;;;24.10;51.50;;;;;;6158989;28;81472;-62
2023/12/20 12:57:35;;;;;;;12.05;5.57;;;24.10;51.50;;;;;;6165681;28;80271;-64
2023/12/20 13:00:35;;;;;;;10.77;4.70;;;24.10;51.30;;;;;;6160539;28;81909;-64
2023/12/20 13:03:36;;;;;;;14.02;4.60;;;24.10;51.10;;;;;;6158219;28;80565;-68
2023/12/20 13:06:36;;;;;;;8.45;4.55;;;24.10;51.10;;;;;;6157039;28;80569;-66
2023/12/20 13:09:37;;;;;;;8.38;3.83;;;24.10;50.90;;;;;;6173952;28;80945;-65
2023/12/20 13:12:37;;;;;;;8.73;3.83;;;24.10;50.80;;;;;;6167852;28;80928;-64
2023/12/20 13:15:38;;;;;;;6.18;3.40;;;24.10;51.20;;;;;;6173473;28;80312;-63
2023/12/20 13:18:42;;;;;;;4.97;2.97;;;24.10;51.00;;;;;;6153856;28;80230;-66
2023/12/20 13:21:42;;;;;;;9.70;3.83;;;24.10;50.90;;;;;;6167312;28;80288;-72
2023/12/20 13:24:44;;;;;;;8.40;2.85;;;24.10;50.60;;;;;;6166527;28;81022;-69
2023/12/20 13:27:44;;;;;;;5.15;2.92;;;24.10;50.90;;;;;;6175030;28;80297;-69
2023/12/20 13:30:45;;;;;;;5.68;3.20;;;24.10;51.00;;;;;;6156417;28;80846;-72
2023/12/20 13:33:45;;;;;;;6.63;3.53;;;24.10;50.80;;;;;;6174392;28;80482;-57
2023/12/20 13:36:47;;;;;;;5.32;2.90;;;24.10;50.60;;;;;;6170755;28;81526;-56
2023/12/20 13:39:47;;;;;;;5.82;3.00;;;24.10;50.80;;;;;;6175297;28;81163;-55
2023/12/20 13:42:48;;;;;;;4.03;2.35;;;24.10;50.80;;;;;;6175329;28;80551;-54
2023/12/20 13:45:48;;;;;;;3.67;2.42;;;24.10;50.80;;;;;;6167666;28;86008;-54
2023/12/20 13:48:49;;;;;;;4.22;2.70;;;24.10;50.90;;;;;;6177227;28;80260;-56
2023/12/20 13:51:50;;;;;;;4.30;2.58;;;24.10;50.80;;;;;;6164397;28;81411;-65
2023/12/20 13:54:50;;;;;;;5.10;2.50;;;24.10;50.60;;;;;;6176111;28;80556;-66
2023/12/20 13:57:51;;;;;;;4.40;2.40;;;24.10;50.60;;;;;;6171139;28;82341;-66
2023/12/20 14:00:51;;;;;;;5.13;2.15;;;24.10;50.70;;;;;;6168877;28;80343;-66
2023/12/20 14:03:52;;;;;;;3.08;2.65;;;24.10;50.30;;;;;;6157129;28;80485;-65
2023/12/20 14:06:52;;;;;;;3.13;1.90;;;24.10;50.40;;;;;;6151314;28;80370;-65
2023/12/20 14:09:53;;;;;;;3.38;2.10;;;24.10;50.70;;;;;;6164630;28;80378;-70
2023/12/20 14:12:53;;;;;;;2.50;1.90;;;24.10;50.40;;;;;;6172832;28;80288;-55
2023/12/20 14:15:54;;;;;;;3.10;2.20;;;24.10;50.30;;;;;;6176160;28;80616;-59
2023/12/20 14:18:57;;;;;;;5.97;2.50;;;24.10;50.10;;;;;;6176226;28;80316;-57
2023/12/20 14:22:01;;;;;;;3.10;2.20;;;24.10;50.30;;;;;;6170962;28;81473;-53
2023/12/20 14:25:01;;;;;;;4.00;2.45;;;24.10;50.30;;;;;;6172068;28;82544;-55
2023/12/20 14:28:02;;;;;;;4.60;2.25;;;24.10;50.00;;;;;;6171425;28;81435;-57
2023/12/20 14:31:03;;;;;;;7.55;4.65;;;24.10;50.20;;;;;;6151622;28;80921;-55
2023/12/20 14:34:04;;;;;;;93.53;36.38;;;24.10;50.60;;;;;;6173700;28;81747;-56
2023/12/20 14:37:04;;;;;;;54.78;28.98;;;24.10;50.40;;;;;;6172054;28;83146;-57
2023/12/20 14:40:05;;;;;;;123.70;66.13;;;24.10;50.10;;;;;;6156676;28;84523;-54
2023/12/20 14:43:05;;;;;;;195.10;100.82;;;24.10;50.30;;;;;;6143508;28;85804;-55
2023/12/20 14:46:06;;;;;;;254.88;131.05;;;24.10;50.10;;;;;;6154474;28;86404;-58
2023/12/20 14:49:07;;;;;;;253.55;128.32;;;24.00;50.20;;;;;;6158621;28;85726;-69
2023/12/20 14:52:07;;;;;;;229.75;115.53;;;24.00;50.00;;;;;;6142436;28;90196;-65
2023/12/20 14:55:08;;;;;;;189.25;99.15;;;24.00;50.10;;;;;;6154319;28;86189;-65
2023/12/20 14:58:08;;;;;;;215.38;113.72;;;24.00;50.00;;;;;;6156163;28;85907;-64
2023/12/20 15:01:09;;;;;;;231.10;119.65;;;24.10;50.10;;;;;;6153301;28;88785;-68
2023/12/20 15:04:09;;;;;;;260.23;134.25;;;24.00;50.20;;;;;;6162101;28;85684;-67
2023/12/20 15:07:10;;;;;;;253.13;136.73;;;24.10;50.20;;;;;;6157968;28;87211;-63
2023/12/20 15:10:10;;;;;;;303.45;154.30;;;24.00;50.10;;;;;;6169458;28;86367;-63
2023/12/20 15:13:12;;;;;;;280.60;145.57;;;24.10;50.30;;;;;;6166738;28;92073;-62
2023/12/20 15:16:13;;;;;;;252.52;132.68;;;24.10;50.20;;;;;;6165500;28;85611;-71
2023/12/20 15:19:13;;;;;;;272.38;139.80;;;24.10;50.50;;;;;;6149954;28;85772;-71
2023/12/20 15:22:14;;;;;;;217.93;115.95;;;24.10;50.30;;;;;;6164622;28;85684;-65
2023/12/20 15:25:21;;;;;;;195.43;103.32;;;24.10;50.60;;;;;;6161369;28;86042;-67
2023/12/20 15:28:21;;;;;;;171.45;89.35;;;24.10;50.40;;;;;;6164177;28;85637;-65